Time;durP1;ratioP1;P1;durP2;ratioP2;P2;SDS_P1;SDS_P2;PMS_P1;PMS_P2;Temp;Humidity;BMP_temperature;BMP_pressure;BME280_temperature;BME280_humidity;BME280_pressure;Samples;Min_cycle;Max_cycle;Signal;HPM_P1;HPM_P2
2024/04/14 00:00:47;;;;;;;6.60;1.88;;;;;;;15.34;71.33;102008.81;5472278;26;20015;-40
2024/04/14 00:03:12;;;;;;;;;;;;;;;15.48;71.54;102016.78;5473140;26;20431;-39
2024/04/14 00:05:38;;;;;;;3.25;1.30;;;;;;;15.31;73.41;102013.88;5463021;26;19924;-40
2024/04/14 00:08:03;;;;;;;;;;;;;;;15.39;73.08;102017.09;5456767;26;20002;-40
2024/04/14 00:10:29;;;;;;;5.28;2.20;;;;;;;15.14;74.56;102013.72;5456288;26;20360;-40
2024/04/14 00:12:54;;;;;;;;;;;;;;;15.28;74.88;102020.66;5456894;26;20006;-40
2024/04/14 00:15:20;;;;;;;4.32;2.33;;;;;;;15.13;76.32;102020.25;5456506;26;19925;-40
2024/04/14 00:17:45;;;;;;;;;;;;;;;15.18;76.43;102025.84;5456708;26;19987;-40
2024/04/14 00:20:12;;;;;;;6.60;2.97;;;;;;;14.97;78.02;102016.28;5456737;26;19925;-39
2024/04/14 00:22:38;;;;;;;4.15;2.20;;;;;;;14.94;78.99;102016.75;5455748;26;20216;-40
2024/04/14 00:25:04;;;;;;;4.80;2.40;;;;;;;14.89;79.41;102011.19;5456615;26;19995;-40
2024/04/14 00:27:29;;;;;;;;;;;;;;;15.04;79.04;102019.75;5456148;26;19991;-40
2024/04/14 00:29:54;;;;;;;4.83;2.70;;;;;;;14.82;80.88;102010.41;5456038;26;19924;-40
2024/04/14 00:32:20;;;;;;;;;;;;;;;14.96;80.57;102019.25;5456883;26;20364;-40
2024/04/14 00:34:45;;;;;;;5.88;2.03;;;;;;;14.77;82.61;102008.38;5456407;26;19932;-40
2024/04/14 00:37:10;;;;;;;;;;;;;;;14.93;80.98;102023.25;5456528;26;20075;-40
2024/04/14 00:39:35;;;;;;;5.50;1.97;;;;;;;14.73;85.09;102011.81;5456243;26;19997;-40
2024/04/14 00:42:01;;;;;;;5.90;2.13;;;;;;;14.74;84.59;102013.47;5455614;26;20216;-39
2024/04/14 00:44:26;;;;;;;6.03;1.93;;;;;;;14.75;85.25;102012.41;5456139;26;20224;-40
2024/04/14 00:46:51;;;;;;;7.28;2.20;;;;;;;14.73;86.30;102022.69;5455079;26;20224;-40
2024/04/14 00:49:18;;;;;;;;;;;;;;;14.83;85.06;102021.06;5456192;26;20006;-40
2024/04/14 00:51:43;;;;;;;6.53;2.35;;;;;;;14.66;87.59;102026.34;5455083;26;20310;-40
2024/04/14 00:54:09;;;;;;;;;;;;;;;14.73;87.26;102017.25;5455720;26;20071;-40
2024/04/14 00:56:35;;;;;;;6.63;2.30;;;;;;;14.60;88.47;102032.72;5454950;26;19925;-40
2024/04/14 00:59:00;;;;;;;;;;;;;;;14.67;88.03;102028.00;5456283;26;20005;-39
2024/04/14 01:01:26;;;;;;;6.50;2.42;;;;;;;14.46;90.02;102017.56;5455178;26;19930;-40
2024/04/14 01:03:51;;;;;;;;;;;;;;;14.64;87.98;102033.91;5456142;26;19999;-40
2024/04/14 01:06:16;;;;;;;5.90;2.27;;;;;;;14.38;92.24;102031.47;5455111;26;19928;-40
2024/04/14 01:08:42;;;;;;;7.97;2.13;;;;;;;14.30;92.82;102029.91;5455112;26;20244;-40
2024/04/14 01:11:08;;;;;;;;;;;;;;;14.50;90.04;102048.75;5456890;26;20415;-40
2024/04/14 01:13:33;;;;;;;8.65;2.15;;;;;;;14.34;93.70;102041.16;5454964;26;20001;-40
2024/04/14 01:15:58;;;;;;;6.85;2.35;;;;;;;14.31;95.28;102047.06;5455091;26;19995;-40
2024/04/14 01:18:24;;;;;;;7.25;2.50;;;;;;;14.22;96.12;102032.09;5453536;26;20063;-40
2024/04/14 01:20:49;;;;;;;;;;;;;;;14.39;93.21;102050.28;5456454;26;20292;-39
2024/04/14 01:23:15;;;;;;;8.35;2.40;;;;;;;14.25;96.95;102047.94;5454812;26;19925;-40
2024/04/14 01:25:40;;;;;;;7.70;2.67;;;;;;;14.17;97.40;102044.47;5454927;26;20059;-39
2024/04/14 01:28:06;;;;;;;;;;;;;;;14.33;95.66;102050.38;5455805;26;20415;-40
2024/04/14 01:30:31;;;;;;;5.85;2.45;;;;;;;14.17;98.60;102044.47;5455072;26;19925;-39
2024/04/14 01:32:57;;;;;;;6.87;2.30;;;;;;;14.03;98.87;102034.78;5454765;26;20006;-40
2024/04/14 01:35:22;;;;;;;;;;;;;;;14.27;96.10;102063.00;5455922;26;20314;-40
2024/04/14 01:37:48;;;;;;;10.27;2.90;;;;;;;14.11;100.00;102064.44;5455053;26;20339;-40
2024/04/14 01:40:13;;;;;;;;;;;;;;;14.21;97.95;102063.09;5455975;26;20062;-45
2024/04/14 01:42:40;;;;;;;7.00;2.80;;;;;;;14.00;100.00;102067.88;5454435;26;20338;-40
2024/04/14 01:45:09;;;;;;;6.90;2.38;;;;;;;13.95;100.00;102059.53;5454696;26;20691;-40
2024/04/14 01:47:35;;;;;;;8.85;2.65;;;;;;;13.95;100.00;102066.88;5454194;26;20461;-40
2024/04/14 01:50:00;;;;;;;;;;;;;;;14.11;100.00;102075.31;5455464;26;19991;-40
2024/04/14 01:52:25;;;;;;;8.80;2.60;;;;;;;13.96;100.00;102072.13;5454415;26;19924;-40
2024/04/14 01:54:50;;;;;;;;;;;;;;;14.08;100.00;102080.34;5454926;26;20002;-40
2024/04/14 01:57:16;;;;;;;8.00;2.73;;;;;;;13.93;100.00;102075.25;5454512;26;19924;-40
2024/04/14 01:59:41;;;;;;;;;;;;;;;14.07;100.00;102076.81;5455006;26;19987;-40
2024/04/14 02:02:06;;;;;;;9.07;2.83;;;;;;;13.92;100.00;102084.47;5454435;26;19924;-39
2024/04/14 02:04:32;;;;;;;9.40;2.78;;;;;;;13.85;100.00;102080.97;5454337;26;20244;-39
2024/04/14 02:06:58;;;;;;;5.57;2.15;;;;;;;13.90;100.00;102083.84;5454510;26;20463;-40
2024/04/14 02:09:23;;;;;;;;;;;;;;;13.99;100.00;102087.97;5455487;26;19991;-40
2024/04/14 02:11:48;;;;;;;7.73;2.43;;;;;;;13.79;100.00;102082.69;5454240;26;19924;-40
2024/04/14 02:14:13;;;;;;;;;;;;;;;13.94;100.00;102085.09;5455227;26;19999;-40
2024/04/14 02:16:39;;;;;;;6.47;2.63;;;;;;;13.81;100.00;102087.91;5454048;26;19924;-40
2024/04/14 02:19:04;;;;;;;;;;;;;;;13.93;100.00;102086.16;5454676;26;19990;-40
2024/04/14 02:21:29;;;;;;;9.60;3.17;;;;;;;13.86;100.00;102085.38;5453781;26;19956;-40
2024/04/14 02:23:54;;;;;;;;;;;;;;;13.94;100.00;102087.81;5454607;26;19987;-40
2024/04/14 02:26:20;;;;;;;5.33;2.40;;;;;;;13.82;100.00;102092.31;5454003;26;20348;-40
2024/04/14 02:28:45;;;;;;;8.13;2.65;;;;;;;13.79;100.00;102090.03;5454117;26;20559;-40
2024/04/14 02:31:11;;;;;;;6.20;2.47;;;;;;;13.77;100.00;102090.25;5454201;26;19994;-39
2024/04/14 02:33:36;;;;;;;7.37;2.90;;;;;;;13.73;100.00;102088.22;5453987;26;20524;-39
2024/04/14 02:36:01;;;;;;;9.27;2.70;;;;;;;13.58;100.00;102081.22;5454778;26;20213;-40
2024/04/14 02:38:28;;;;;;;8.75;2.70;;;;;;;13.69;100.00;102092.41;5453811;26;20208;-40
2024/04/14 02:40:54;;;;;;;7.95;2.78;;;;;;;13.64;100.00;102096.63;5453979;26;20002;-40
2024/04/14 02:43:20;;;;;;;8.63;2.63;;;;;;;13.60;100.00;102098.13;5453678;26;20067;-40
2024/04/14 02:45:45;;;;;;;;;;;;;;;13.73;100.00;102099.09;5454491;26;20003;-40
2024/04/14 02:48:10;;;;;;;10.07;3.10;;;;;;;13.59;100.00;102095.63;5453844;26;19933;-40
2024/04/14 02:50:35;;;;;;;;;;;;;;;13.70;100.00;102099.50;5454245;26;19987;-40
2024/04/14 02:53:01;;;;;;;7.37;2.47;;;;;;;13.51;100.00;102094.00;5453097;26;19924;-40
2024/04/14 02:55:26;;;;;;;7.17;2.90;;;;;;;13.29;100.00;102076.41;5454494;26;20212;-40
2024/04/14 02:57:51;;;;;;;;;;;;;;;13.55;100.00;102111.53;5454975;26;20450;-40
2024/04/14 03:00:17;;;;;;;11.53;2.97;;;;;;;13.44;100.00;102103.25;5453728;26;19931;-40
2024/04/14 03:02:42;;;;;;;;;;;;;;;13.54;100.00;102098.19;5454220;26;20002;-39
2024/04/14 03:05:07;;;;;;;6.35;2.00;;;;;;;13.39;100.00;102099.31;5453933;26;19936;-40
2024/04/14 03:07:33;;;;;;;;;;;;;;;13.53;100.00;102101.94;5454237;26;19991;-40
2024/04/14 03:09:58;;;;;;;10.10;2.10;;;;;;;13.40;100.00;102106.41;5454198;26;20321;-40
2024/04/14 03:12:23;;;;;;;;;;;;;;;13.50;100.00;102105.94;5453823;26;19991;-40
2024/04/14 03:14:49;;;;;;;8.30;1.83;;;;;;;13.37;100.00;102117.72;5453987;26;19924;-40
2024/04/14 03:17:14;;;;;;;6.20;2.08;;;;;;;13.32;100.00;102108.53;5453447;26;20253;-40
2024/04/14 03:19:39;;;;;;;5.67;1.73;;;;;;;13.32;100.00;102113.97;5453467;26;19995;-40
2024/04/14 03:22:04;;;;;;;4.50;1.80;;;;;;;13.20;100.00;102102.13;5453934;26;20221;-39
2024/04/14 03:24:32;;;;;;;8.40;2.28;;;;;;;13.22;100.00;102113.63;5453423;26;20011;-39
2024/04/14 03:26:58;;;;;;;9.68;2.35;;;;;;;13.09;100.00;102118.06;5453533;26;20019;-39
2024/04/14 03:29:23;;;;;;;;;;;;;;;13.29;100.00;102125.31;5453974;26;19991;-39
2024/04/14 03:31:48;;;;;;;5.77;1.83;;;;;;;13.15;100.00;102135.38;5452817;26;19924;-40
2024/04/14 03:34:14;;;;;;;9.60;2.00;;;;;;;13.05;100.00;102122.25;5453427;26;20216;-40
2024/04/14 03:36:39;;;;;;;;;;;;;;;13.24;100.00;102130.56;5453690;26;20022;-39
2024/04/14 03:39:04;;;;;;;7.45;1.90;;;;;;;13.08;100.00;102129.16;5452738;26;19997;-39
2024/04/14 03:41:30;;;;;;;;;;;;;;;13.20;100.00;102138.25;5456103;26;20083;-40
2024/04/14 03:43:55;;;;;;;6.35;1.58;;;;;;;12.98;100.00;102143.19;5456954;26;19924;-39
2024/04/14 03:46:20;;;;;;;5.67;1.47;;;;;;;12.94;100.00;102150.09;5456376;26;19997;-39
2024/04/14 03:48:46;;;;;;;;;;;;;;;13.03;100.00;102139.78;5457187;26;19987;-40
2024/04/14 03:51:11;;;;;;;8.53;1.33;;;;;;;12.81;100.00;102140.09;5456259;26;19924;-39
2024/04/14 03:53:36;;;;;;;8.32;1.92;;;;;;;12.71;100.00;102144.31;5456309;26;20691;-40
2024/04/14 03:56:02;;;;;;;5.33;1.57;;;;;;;12.68;100.00;102139.31;5456485;26;19991;-39
2024/04/14 03:58:27;;;;;;;8.13;2.00;;;;;;;12.71;100.00;102136.19;5456770;26;20212;-40
2024/04/14 04:00:53;;;;;;;3.78;1.35;;;;;;;12.68;100.00;102145.56;5456911;26;19990;-39
2024/04/14 04:03:18;;;;;;;8.57;2.10;;;;;;;12.65;100.00;102148.72;5456151;26;20482;-39
2024/04/14 04:05:52;;;;;;;5.27;1.67;;;;;;;12.70;100.00;102151.63;5456690;26;20411;-40
2024/04/14 04:08:18;;;;;;;6.97;1.67;;;;;;;12.67;100.00;102152.03;5456560;26;20463;-40
2024/04/14 04:10:43;;;;;;;;;;;;;;;12.81;100.00;102147.41;5456927;26;19994;-39
2024/04/14 04:13:08;;;;;;;4.67;1.50;;;;;;;12.70;100.00;102153.50;5456212;26;19936;-39
2024/04/14 04:15:34;;;;;;;6.43;1.60;;;;;;;12.68;100.00;102152.88;5456277;26;20208;-40
2024/04/14 04:17:59;;;;;;;4.70;1.37;;;;;;;12.67;100.00;102151.22;5456230;26;20007;-40
2024/04/14 04:20:24;;;;;;;5.87;1.50;;;;;;;12.65;100.00;102154.16;5456144;26;20209;-39
2024/04/14 04:22:49;;;;;;;6.40;1.60;;;;;;;12.66;100.00;102161.25;5456447;26;20296;-40
2024/04/14 04:25:15;;;;;;;6.57;1.47;;;;;;;12.63;100.00;102157.06;5456118;26;19999;-40
2024/04/14 04:27:40;;;;;;;4.85;1.30;;;;;;;12.61;100.00;102150.19;5456023;26;20204;-40
2024/04/14 04:30:06;;;;;;;5.87;1.50;;;;;;;12.61;100.00;102153.75;5456713;26;20399;-39
2024/04/14 04:32:31;;;;;;;5.18;1.55;;;;;;;12.65;100.00;102159.59;5455906;26;20310;-40
2024/04/14 04:34:57;;;;;;;5.50;1.60;;;;;;;12.61;100.00;102161.88;5455992;26;19998;-39
2024/04/14 04:37:22;;;;;;;8.68;1.70;;;;;;;12.58;100.00;102165.00;5455402;26;20003;-40
2024/04/14 04:39:47;;;;;;;6.67;1.60;;;;;;;12.53;100.00;102170.22;5456054;26;20005;-39
2024/04/14 04:42:13;;;;;;;9.57;1.88;;;;;;;12.48;100.00;102175.47;5455614;26;20300;-40
2024/04/14 04:44:38;;;;;;;7.43;1.70;;;;;;;12.46;100.00;102174.03;5456026;26;20014;-40
2024/04/14 04:47:03;;;;;;;6.37;1.60;;;;;;;12.50;100.00;102195.09;5455739;26;20228;-40
2024/04/14 04:49:29;;;;;;;8.07;2.58;;;;;;;12.47;100.00;102187.38;5455886;26;19991;-40
2024/04/14 04:51:54;;;;;;;5.50;1.73;;;;;;;12.49;100.00;102179.00;5455683;26;19990;-40
2024/04/14 04:54:19;;;;;;;4.93;1.50;;;;;;;12.53;99.45;102186.50;5455840;26;20080;-40
2024/04/14 04:56:45;;;;;;;6.43;1.40;;;;;;;12.50;98.26;102183.41;5455401;26;19999;-40
2024/04/14 04:59:10;;;;;;;6.05;1.85;;;;;;;12.42;97.84;102189.06;5455662;26;20006;-40
2024/04/14 05:01:35;;;;;;;7.20;1.57;;;;;;;12.41;97.29;102190.09;5455377;26;20064;-39
2024/04/14 05:04:01;;;;;;;6.33;1.70;;;;;;;12.42;97.20;102189.88;5456150;26;20216;-39
2024/04/14 05:06:26;;;;;;;;;;;;;;;12.52;97.79;102193.00;5456174;26;20075;-39
2024/04/14 05:08:51;;;;;;;5.53;1.40;;;;;;;12.38;96.46;102188.63;5455975;26;19924;-40
2024/04/14 05:11:16;;;;;;;;;;;;;;;12.53;97.01;102200.06;5455949;26;20002;-40
2024/04/14 05:13:42;;;;;;;6.00;1.70;;;;;;;12.37;96.93;102204.06;5456508;26;19924;-39
2024/04/14 05:16:08;;;;;;;5.40;1.73;;;;;;;12.29;96.30;102209.69;5455088;26;20059;-39
2024/04/14 05:18:33;;;;;;;8.00;1.90;;;;;;;12.28;96.04;102199.06;5455306;26;20431;-39
2024/04/14 05:20:59;;;;;;;6.80;1.52;;;;;;;12.35;96.26;102206.16;5455672;26;20005;-39
2024/04/14 05:23:24;;;;;;;6.93;1.67;;;;;;;12.35;95.96;102210.75;5455398;26;19991;-39
2024/04/14 05:25:50;;;;;;;7.47;1.57;;;;;;;12.31;95.61;102201.38;5455474;26;20197;-39
2024/04/14 05:28:15;;;;;;;8.30;1.27;;;;;;;12.34;95.23;102207.19;5454920;26;20003;-39
2024/04/14 05:30:41;;;;;;;8.00;1.55;;;;;;;12.33;95.33;102218.25;5455121;26;20002;-39
2024/04/14 05:33:06;;;;;;;5.85;1.50;;;;;;;12.34;95.29;102219.91;5454732;26;20006;-40
2024/04/14 05:35:33;;;;;;;4.80;1.50;;;;;;;12.36;96.93;102228.69;5456007;26;19991;-40
2024/04/14 05:37:58;;;;;;;6.70;1.85;;;;;;;12.35;96.38;102229.75;5454683;26;19987;-40
2024/04/14 05:40:25;;;;;;;7.07;1.20;;;;;;;12.29;96.92;102227.84;5455060;26;19987;-40
2024/04/14 05:42:50;;;;;;;5.60;1.38;;;;;;;12.31;96.27;102231.22;5454663;26;19994;-40
2024/04/14 05:45:25;;;;;;;7.53;1.60;;;;;;;12.33;96.58;102212.84;5455285;26;19998;-40
2024/04/14 05:47:50;;;;;;;7.03;1.60;;;;;;;12.37;96.25;102219.50;5455238;26;19998;-40
2024/04/14 05:50:16;;;;;;;6.57;1.92;;;;;;;12.35;96.48;102224.31;5455187;26;20005;-40
2024/04/14 05:52:41;;;;;;;9.50;2.15;;;;;;;12.41;96.71;102231.63;5454478;26;19995;-40
2024/04/14 05:55:06;;;;;;;5.97;1.70;;;;;;;12.38;96.50;102242.88;5454589;26;19991;-40
2024/04/14 05:57:32;;;;;;;4.03;1.10;;;;;;;12.36;97.02;102247.69;5454511;26;20000;-40
2024/04/14 05:59:57;;;;;;;5.97;1.40;;;;;;;12.40;97.64;102240.81;5454816;26;20010;-40
2024/04/14 06:02:22;;;;;;;5.13;1.70;;;;;;;12.40;97.84;102243.53;5454668;26;19999;-40
2024/04/14 06:04:49;;;;;;;;;;;;;;;12.58;97.22;102242.88;5454966;26;19998;-40
2024/04/14 06:07:14;;;;;;;5.75;1.05;;;;;;;12.47;96.49;102241.63;5454695;26;19924;-40
2024/04/14 06:09:40;;;;;;;5.72;1.27;;;;;;;12.43;95.88;102226.81;5454752;26;19991;-39
2024/04/14 06:12:05;;;;;;;6.47;1.67;;;;;;;12.49;95.53;102244.13;5454652;26;20064;-39
2024/04/14 06:14:31;;;;;;;5.65;1.52;;;;;;;12.48;93.52;102243.28;5454469;26;20248;-40
2024/04/14 06:16:56;;;;;;;4.57;1.33;;;;;;;12.52;94.18;102246.44;5454588;26;20002;-40
2024/04/14 06:19:21;;;;;;;7.77;1.53;;;;;;;12.54;93.56;102237.03;5454823;26;19998;-40
2024/04/14 06:21:47;;;;;;;5.43;1.40;;;;;;;12.57;93.76;102236.59;5454161;26;20064;-40
2024/04/14 06:24:12;;;;;;;6.13;1.30;;;;;;;12.60;91.42;102241.63;5455042;26;20616;-40
2024/04/14 06:26:38;;;;;;;6.68;1.60;;;;;;;12.65;nan;102242.88;5454719;26;20002;-40
2024/04/14 06:29:03;;;;;;;6.77;1.50;;;;;;;12.66;90.80;102233.69;5454404;26;19995;-40
2024/04/14 06:31:28;;;;;;;4.40;1.30;;;;;;;12.76;89.68;102242.22;5454253;26;20260;-40
2024/04/14 06:33:54;;;;;;;5.30;1.10;;;;;;;12.75;89.25;102252.25;5454166;26;20539;-41
2024/04/14 06:36:19;;;;;;;7.75;1.55;;;;;;;12.80;89.09;102247.03;5453942;26;20220;-40
2024/04/14 06:38:44;;;;;;;6.53;1.40;;;;;;;12.83;87.24;102257.47;5455208;26;20406;-39
2024/04/14 06:41:11;;;;;;;4.47;1.30;;;;;;;12.78;86.61;102251.81;5453507;26;20002;-39
2024/04/14 06:43:36;;;;;;;4.75;1.27;;;;;;;12.79;86.47;102249.97;5454283;26;20591;-39
2024/04/14 06:46:02;;;;;;;;;;;;;;;13.04;89.32;102259.09;5454307;26;19995;-39
2024/04/14 06:48:27;;;;;;;5.07;1.40;;;;;;;12.97;86.68;102258.25;5454228;26;19925;-39
2024/04/14 06:50:52;;;;;;;7.05;1.48;;;;;;;13.09;87.74;102266.59;5453917;26;20005;-39
2024/04/14 06:53:21;;;;;;;;;;;;;;;13.24;87.03;102269.91;5453677;26;19990;-39
2024/04/14 06:55:47;;;;;;;6.10;1.70;;;;;;;13.13;85.68;102265.97;5454080;26;19924;-40
2024/04/14 06:58:13;;;;;;;6.13;1.70;;;;;;;13.03;86.07;102241.13;5454089;26;19995;-39
2024/04/14 07:00:38;;;;;;;;;;;;;;;13.33;86.19;102273.25;5454866;26;20005;-39
2024/04/14 07:03:04;;;;;;;3.55;1.25;;;;;;;13.13;85.39;102257.81;5453302;26;19957;-40
2024/04/14 07:05:29;;;;;;;;;;;;;;;13.36;86.73;102273.63;5454145;26;20003;-39
2024/04/14 07:07:54;;;;;;;7.43;1.30;;;;;;;13.20;85.26;102278.69;5453402;26;19924;-39
2024/04/14 07:10:20;;;;;;;;;;;;;;;13.37;86.39;102275.31;5454226;26;20037;-39
2024/04/14 07:12:45;;;;;;;6.43;1.42;;;;;;;13.21;84.42;102274.91;5453259;26;19924;-40
2024/04/14 07:15:10;;;;;;;5.47;1.50;;;;;;;13.08;82.49;102276.63;5454434;26;19999;-39
2024/04/14 07:17:36;;;;;;;5.53;1.63;;;;;;;13.05;83.13;102279.75;5457253;26;20224;-40
2024/04/14 07:20:01;;;;;;;;;;;;;;;13.20;84.83;102278.69;5457691;26;20009;-40
2024/04/14 07:22:26;;;;;;;6.53;1.23;;;;;;;13.05;83.49;102274.31;5457256;26;19925;-40
2024/04/14 07:24:51;;;;;;;5.70;1.80;;;;;;;13.17;83.63;102279.09;5457632;26;20207;-40
2024/04/14 07:27:17;;;;;;;5.38;1.40;;;;;;;13.14;80.51;102275.78;5457072;26;20005;-40
2024/04/14 07:29:42;;;;;;;4.37;1.20;;;;;;;13.15;79.86;102271.16;5457310;26;20041;-40
2024/04/14 07:32:07;;;;;;;5.20;1.42;;;;;;;13.19;79.32;102269.69;5456502;26;20312;-40
2024/04/14 07:34:33;;;;;;;4.82;1.30;;;;;;;13.32;79.18;102282.41;5456782;26;20046;-40
2024/04/14 07:36:59;;;;;;;5.18;1.60;;;;;;;13.34;76.82;102289.31;5456916;26;20036;-40
2024/04/14 07:39:25;;;;;;;5.68;1.08;;;;;;;13.25;72.29;102282.44;5456849;26;20005;-39
2024/04/14 07:41:50;;;;;;;;;;;;;;;13.50;75.84;102301.59;5457003;26;19986;-39
2024/04/14 07:44:15;;;;;;;5.07;1.20;;;;;;;13.37;71.82;102296.19;5457249;26;20325;-40
2024/04/14 07:46:40;;;;;;;4.60;1.40;;;;;;;13.35;72.69;102287.44;5456564;26;20253;-40
2024/04/14 07:49:06;;;;;;;;;;;;;;;13.61;76.19;102300.91;5456931;26;20319;-40
2024/04/14 07:51:31;;;;;;;3.72;1.00;;;;;;;13.54;71.51;102296.56;5456311;26;20264;-40
2024/04/14 07:53:57;;;;;;;4.70;1.30;;;;;;;13.62;72.17;102299.03;5456459;26;20003;-40
2024/04/14 07:56:22;;;;;;;3.40;1.27;;;;;;;13.64;72.91;102296.94;5456500;26;20228;-40
2024/04/14 07:58:48;;;;;;;;;;;;;;;13.90;74.82;102295.97;5457491;26;20004;-40
2024/04/14 08:01:14;;;;;;;5.18;1.30;;;;;;;13.79;73.77;102305.63;5456223;26;19931;-40
2024/04/14 08:03:39;;;;;;;;;;;;;;;14.01;75.49;102308.88;5458337;26;20279;-40
2024/04/14 08:06:05;;;;;;;5.17;1.20;;;;;;;13.90;74.37;102298.69;5456790;26;19997;-40
2024/04/14 08:08:30;;;;;;;;;;;;;;;14.24;76.67;102310.19;5457312;26;19994;-40
2024/04/14 08:10:55;;;;;;;5.13;1.50;;;;;;;14.33;75.82;102306.16;5456951;26;19930;-40
2024/04/14 08:13:21;;;;;;;8.60;1.80;;;;;;;14.48;74.33;102300.41;5456118;26;20204;-40
2024/04/14 08:15:46;;;;;;;5.47;1.50;;;;;;;14.50;75.52;102307.31;5456965;26;20250;-40
2024/04/14 08:18:11;;;;;;;5.60;1.52;;;;;;;14.61;74.64;102303.03;5456682;26;20305;-40
2024/04/14 08:20:37;;;;;;;5.25;1.25;;;;;;;14.69;71.18;102313.66;5456596;26;19998;-40
2024/04/14 08:23:02;;;;;;;;;;;;;;;14.82;71.67;102316.25;5456751;26;19991;-39
2024/04/14 08:25:27;;;;;;;5.38;1.30;;;;;;;14.46;68.40;102288.91;5456478;26;19932;-39
2024/04/14 08:27:53;;;;;;;3.47;1.10;;;;;;;14.50;68.16;102301.03;5455391;26;20002;-40
2024/04/14 08:30:18;;;;;;;4.93;1.42;;;;;;;14.39;67.08;102288.94;5456686;26;19991;-40
2024/04/14 08:32:44;;;;;;;;;;;;;;;14.63;70.61;102300.91;5456506;26;19991;-40
2024/04/14 08:35:09;;;;;;;4.85;1.50;;;;;;;14.45;67.74;102292.69;5456178;26;19924;-40
2024/04/14 08:37:34;;;;;;;7.00;1.80;;;;;;;14.43;68.59;102296.44;5455863;26;20019;-40
2024/04/14 08:40:00;;;;;;;;;;;;;;;14.70;70.51;102306.31;5456182;26;20458;-40
2024/04/14 08:42:25;;;;;;;5.63;1.83;;;;;;;14.65;69.73;102310.53;5455185;26;19948;-40
2024/04/14 08:44:51;;;;;;;;;;;;;;;14.86;70.31;102314.75;5456125;26;20450;-40
2024/04/14 08:47:17;;;;;;;5.45;1.60;;;;;;;14.77;71.12;102304.38;5455342;26;19966;-40
2024/04/14 08:49:43;;;;;;;5.18;1.40;;;;;;;14.81;70.11;102309.13;5455617;26;19991;-40
2024/04/14 08:52:08;;;;;;;;;;;;;;;15.08;69.74;102304.28;5456601;26;19994;-40
2024/04/14 08:54:33;;;;;;;8.63;1.60;;;;;;;14.98;70.79;102303.94;5455653;26;19931;-40
2024/04/14 08:57:01;;;;;;;5.80;1.40;;;;;;;15.14;71.66;102297.09;5455946;26;20056;-40
2024/04/14 08:59:27;;;;;;;5.60;1.58;;;;;;;15.49;72.11;102313.66;5456295;26;19990;-40
2024/04/14 09:01:52;;;;;;;;;;;;;;;15.74;70.73;102304.56;5456357;26;20002;-40
2024/04/14 09:04:18;;;;;;;5.20;1.38;;;;;;;15.45;69.37;102296.91;5455617;26;19925;-40
2024/04/14 09:06:44;;;;;;;;;;;;;;;15.68;72.06;102298.97;5456116;26;20084;-39
2024/04/14 09:09:11;;;;;;;6.97;1.55;;;;;;;15.47;72.75;102307.63;5456090;26;20334;-41
2024/04/14 09:11:36;;;;;;;6.25;1.42;;;;;;;15.39;70.09;102318.81;5455144;26;20308;-40
2024/04/14 09:14:01;;;;;;;;;;;;;;;15.66;71.48;102317.47;5456102;26;19995;-40
2024/04/14 09:16:27;;;;;;;6.70;1.40;;;;;;;15.47;66.16;102318.53;5453395;26;20264;-41
2024/04/14 09:18:52;;;;;;;6.25;1.58;;;;;;;15.54;64.30;102322.00;5455623;26;20329;-40
2024/04/14 09:21:17;;;;;;;;;;;;;;;15.81;64.61;102325.25;5456278;26;19995;-40
2024/04/14 09:23:43;;;;;;;5.57;1.30;;;;;;;15.75;63.10;102325.31;5455549;26;19963;-40
2024/04/14 09:26:08;;;;;;;7.25;1.77;;;;;;;15.67;63.72;102301.94;5455336;26;20212;-40
2024/04/14 09:28:33;;;;;;;;;;;;;;;15.89;66.36;102315.91;5455810;26;20068;-40
2024/04/14 09:30:59;;;;;;;4.93;1.40;;;;;;;15.72;63.13;102309.44;5455118;26;19924;-40
2024/04/14 09:33:25;;;;;;;;;;;;;;;15.91;65.59;102313.81;5455912;26;20001;-40
2024/04/14 09:35:51;;;;;;;4.38;1.65;;;;;;;15.75;63.67;102319.88;5455286;26;19931;-40
2024/04/14 09:38:17;;;;;;;6.07;1.58;;;;;;;15.81;62.97;102319.81;5453698;26;19994;-40
2024/04/14 09:40:44;;;;;;;3.70;1.20;;;;;;;15.79;59.41;102332.81;5455278;26;20442;-40
2024/04/14 09:43:13;;;;;;;4.93;1.38;;;;;;;15.70;59.04;102337.75;5454273;26;20408;-40
2024/04/14 09:45:39;;;;;;;4.65;1.33;;;;;;;15.51;54.66;102333.34;5454686;26;20030;-39
2024/04/14 09:48:06;;;;;;;5.03;1.05;;;;;;;15.46;54.05;102331.28;5454558;26;20002;-39
2024/04/14 09:50:34;;;;;;;6.68;1.25;;;;;;;15.40;55.77;102334.09;5454827;26;20461;-40
2024/04/14 09:53:02;;;;;;;5.50;1.10;;;;;;;15.40;56.43;102328.66;5454417;26;20385;-40
2024/04/14 09:55:28;;;;;;;3.08;1.00;;;;;;;15.65;55.50;102337.59;5455426;26;20005;-40
2024/04/14 09:57:53;;;;;;;;;;;;;;;15.82;56.72;102337.84;5455398;26;19995;-40
2024/04/14 10:00:19;;;;;;;3.87;1.13;;;;;;;15.58;55.10;102336.00;5455019;26;19931;-40
2024/04/14 10:02:50;;;;;;;4.70;0.80;;;;;;;15.68;54.75;102331.72;5454699;26;20255;-40
2024/04/14 10:05:17;;;;;;;4.32;1.17;;;;;;;15.84;54.72;102338.41;5455296;26;20001;-40
2024/04/14 10:07:43;;;;;;;3.70;1.00;;;;;;;15.95;53.85;102339.53;5454595;26;20298;-40
2024/04/14 10:10:10;;;;;;;;;;;;;;;16.24;55.18;102329.66;5455440;26;20021;-40
2024/04/14 10:12:36;;;;;;;2.95;1.00;;;;;;;15.98;51.21;102335.53;5454477;26;19924;-40
2024/04/14 10:15:05;;;;;;;;;;;;;;;16.14;53.77;102341.16;5455226;26;19987;-40
2024/04/14 10:17:33;;;;;;;4.88;1.48;;;;;;;15.67;52.91;102330.03;5454117;26;19931;-39
2024/04/14 10:20:07;;;;;;;4.97;1.00;;;;;;;15.83;55.11;102339.50;5454360;26;19999;-39
2024/04/14 10:22:37;;;;;;;3.92;1.27;;;;;;;15.90;54.33;102340.22;5454277;26;20366;-40
2024/04/14 10:25:03;;;;;;;5.43;1.58;;;;;;;16.00;54.32;102333.38;5454619;26;19995;-40
2024/04/14 10:27:33;;;;;;;;;;;;;;;16.20;55.18;102339.38;5454782;26;20323;-40
2024/04/14 10:30:00;;;;;;;4.22;1.35;;;;;;;16.01;53.74;102332.34;5454181;26;20015;-40
2024/04/14 10:32:26;;;;;;;5.32;1.38;;;;;;;16.31;54.42;102329.59;5454442;26;20003;-40
2024/04/14 10:34:51;;;;;;;;;;;;;;;16.58;55.54;102344.47;5454502;26;20005;-39
2024/04/14 10:37:27;;;;;;;3.03;1.05;;;;;;;16.50;55.09;102339.38;5454265;26;19993;-40
2024/04/14 10:39:53;;;;;;;3.75;1.35;;;;;;;16.62;52.87;102337.47;5452558;26;20064;-40
2024/04/14 10:42:20;;;;;;;5.13;1.20;;;;;;;16.71;54.15;102333.38;5453564;26;20006;-40
2024/04/14 10:44:45;;;;;;;3.00;1.20;;;;;;;16.65;51.46;102325.28;5454037;26;20002;-39
2024/04/14 10:47:17;;;;;;;;;;;;;;;16.95;54.12;102330.66;5453826;26;20006;-39
2024/04/14 10:49:50;;;;;;;4.03;1.15;;;;;;;16.77;51.16;102336.22;5453182;26;19932;-39
2024/04/14 10:52:16;;;;;;;3.22;1.20;;;;;;;16.63;51.49;102325.47;5453300;26;20323;-39
2024/04/14 10:54:42;;;;;;;5.18;1.33;;;;;;;16.73;52.76;102327.66;5453472;26;20066;-40
2024/04/14 10:57:08;;;;;;;;;;;;;;;17.01;52.13;102334.34;5454346;26;20006;-40
2024/04/14 10:59:34;;;;;;;3.67;1.23;;;;;;;16.69;52.60;102321.84;5453792;26;19924;-40
2024/04/14 11:02:00;;;;;;;;;;;;;;;16.90;53.93;102317.72;5454561;26;20303;-40
2024/04/14 11:04:26;;;;;;;3.78;1.13;;;;;;;16.60;52.17;102304.13;5453808;26;19933;-40
2024/04/14 11:06:52;;;;;;;5.55;1.30;;;;;;;16.75;52.48;102316.53;5453268;26;20069;-39
2024/04/14 11:09:17;;;;;;;;;;;;;;;17.06;54.20;102304.41;5454729;26;19987;-40
2024/04/14 11:11:43;;;;;;;3.28;1.08;;;;;;;16.97;53.61;102303.91;5453847;26;19939;-40
2024/04/14 11:14:09;;;;;;;;;;;;;;;17.34;54.13;102303.66;5454362;26;19991;-41
2024/04/14 11:16:34;;;;;;;3.03;1.02;;;;;;;17.11;50.06;102299.03;5453101;26;19926;-39
2024/04/14 11:18:59;;;;;;;;;;;;;;;17.37;51.89;102294.94;5454285;26;20170;-40
2024/04/14 11:21:27;;;;;;;4.67;1.30;;;;;;;17.00;49.29;102306.19;5453372;26;19952;-40
2024/04/14 11:23:54;;;;;;;5.13;1.20;;;;;;;16.94;51.42;102286.13;5452924;26;20014;-40
2024/04/14 11:26:19;;;;;;;4.95;1.35;;;;;;;16.94;49.96;102274.34;5453295;26;20002;-40
2024/04/14 11:28:45;;;;;;;;;;;;;;;17.35;51.34;102288.91;5453872;26;20068;-40
2024/04/14 11:31:10;;;;;;;5.35;1.30;;;;;;;17.16;49.21;102296.41;5453277;26;19966;-40